Gorst, Washington
Current Conditions -  °F | °C
As of 2:35 AM on Sunday 26 Oct 2014 (Local Time) from KPWT Reporting Station
Clear Clear  
Wind Chill: 41°   Ceiling: Unl
Heat Index: 46°   Visibility: 10mi
Dew Point: 45°   Wind: 12mph
Humidity: 93%   Direction: 200°SSW
Pressure: 29.84"   Gusts: NA
Location:  47.5661°N, 122.637°W
Report Text: KPWT 260935Z AUTO 20010KT 10SM CLR 08/07 A2984 RMK AO1
Loading
Personal Weather Stations






























Interactive Weather Map
Tropical Storm Tracking
New forecast layout! Learn more

10-Day Weather Forecast

Advertisements
Track Severe Weather on mobile